This is the latest recevied weather packets stored in our database for station/object OH2TH. If no packets are shown the sender has not sent any weather packets the latest 10 day(s).
| Time | Temp. | Humidity | Pressure | Rain* | Wind** | Luminosity | Snow |
|---|---|---|---|---|---|---|---|
| 1778137202 | 11.11° C | 29% | 101 hPa | - | - | - | - |
| 1778136302 | 11.11° C | 32% | 101 hPa | - | - | - | - |
| 1778135402 | 10° C | 34% | 101 hPa | - | - | - | - |
| 1778134501 | 8.89° C | 34% | 101 hPa | - | - | - | - |
| 1778133601 | 8.89° C | 35% | 101 hPa | - | - | - | - |
| 1778132701 | 7.78° C | 37% | 101 hPa | - | - | - | - |
| 1778131800 | 6.11° C | 40% | 101 hPa | - | - | - | - |
| 1778130900 | 6.11° C | 46% | 101 hPa | - | - | - | - |
| 1778130005 | 5° C | 51% | 101 hPa | - | - | - | - |
| 1778129105 | 2.78° C | 56% | 101 hPa | - | - | - | - |
| 1778128204 | 2.78° C | 57% | 101 hPa | - | - | - | - |
| 1778127303 | 2.22° C | 60% | 101 hPa | - | - | - | - |
| 1778126402 | 1.11° C | 65% | 101 hPa | - | - | - | - |
| 1778125501 | - | 65% | 101 hPa | - | - | - | - |
| 1778124601 | - | 66% | 101 hPa | - | - | - | - |
| 1778123705 | -0.56° C | 72% | 101 hPa | - | - | - | - |
| 1778122804 | -0.56° C | 72% | 101 hPa | - | - | - | - |
| 1778121903 | -0.56° C | 73% | 101 hPa | - | - | - | - |
| 1778121002 | -0.56° C | 73% | 101 hPa | - | - | - | - |
| 1778120102 | -0.56° C | 74% | 101 hPa | - | - | - | - |
| 1778119200 | -0.56° C | 75% | 101 hPa | - | - | - | - |
| 1778118304 | -0.56° C | 74% | 101 hPa | - | - | - | - |
| 1778117403 | -0.56° C | 76% | 101 hPa | - | - | - | - |
| 1778116503 | 0° C | 78% | 101 hPa | - | - | - | - |
| 1778115602 | 0° C | 77% | 101 hPa | - | - | - | - |
* Rain since midnight (hover to see other rain measurements)
** Current wind speed in m/s (hover to see current wind gust speed)